sensor_id;sensor_type;location;lat;lon;timestamp;temperature;humidity
54680;DHT22;40578;53.178;5.846;2022-08-25T00:00:07;21.00;99.90
54680;DHT22;40578;53.178;5.846;2022-08-25T00:02:32;20.90;99.90
54680;DHT22;40578;53.178;5.846;2022-08-25T00:04:59;20.80;99.90
54680;DHT22;40578;53.178;5.846;2022-08-25T00:07:25;20.90;99.90
54680;DHT22;40578;53.178;5.846;2022-08-25T00:09:50;20.90;99.90
54680;DHT22;40578;53.178;5.846;2022-08-25T00:12:16;20.80;99.90
54680;DHT22;40578;53.178;5.846;2022-08-25T00:14:42;20.80;99.90
54680;DHT22;40578;53.178;5.846;2022-08-25T00:17:08;20.80;1.00
54680;DHT22;40578;53.178;5.846;2022-08-25T00:19:36;20.80;1.00
54680;DHT22;40578;53.178;5.846;2022-08-25T00:22:05;20.70;1.00
54680;DHT22;40578;53.178;5.846;2022-08-25T00:24:32;20.70;1.00
54680;DHT22;40578;53.178;5.846;2022-08-25T00:26:58;20.70;1.00
54680;DHT22;40578;53.178;5.846;2022-08-25T00:29:25;20.60;99.90
54680;DHT22;40578;53.178;5.846;2022-08-25T00:31:51;20.60;1.00
54680;DHT22;40578;53.178;5.846;2022-08-25T00:34:21;20.70;99.90
54680;DHT22;40578;53.178;5.846;2022-08-25T00:36:47;20.60;99.90
54680;DHT22;40578;53.178;5.846;2022-08-25T00:39:15;20.70;99.90
54680;DHT22;40578;53.178;5.846;2022-08-25T00:41:45;20.60;99.90
54680;DHT22;40578;53.178;5.846;2022-08-25T00:44:12;20.60;99.90
54680;DHT22;40578;53.178;5.846;2022-08-25T00:46:45;20.50;99.90
54680;DHT22;40578;53.178;5.846;2022-08-25T00:49:20;20.50;99.90
54680;DHT22;40578;53.178;5.846;2022-08-25T00:52:00;20.40;99.90
54680;DHT22;40578;53.178;5.846;2022-08-25T00:54:41;20.50;99.90
54680;DHT22;40578;53.178;5.846;2022-08-25T00:57:15;20.50;99.90
54680;DHT22;40578;53.178;5.846;2022-08-25T00:59:45;20.50;99.90
54680;DHT22;40578;53.178;5.846;2022-08-25T01:02:15;20.40;99.90
54680;DHT22;40578;53.178;5.846;2022-08-25T01:04:45;20.40;99.90
54680;DHT22;40578;53.178;5.846;2022-08-25T01:07:12;20.50;99.90
54680;DHT22;40578;53.178;5.846;2022-08-25T01:09:47;20.40;99.90
54680;DHT22;40578;53.178;5.846;2022-08-25T01:12:15;20.50;99.90
54680;DHT22;40578;53.178;5.846;2022-08-25T01:14:42;20.40;99.90
54680;DHT22;40578;53.178;5.846;2022-08-25T01:17:10;20.40;99.90
54680;DHT22;40578;53.178;5.846;2022-08-25T01:19:37;20.40;99.90
54680;DHT22;40578;53.178;5.846;2022-08-25T01:22:02;20.30;99.90
54680;DHT22;40578;53.178;5.846;2022-08-25T01:24:51;20.30;93.00
54680;DHT22;40578;53.178;5.846;2022-08-25T01:27:21;20.30;63.70
54680;DHT22;40578;53.178;5.846;2022-08-25T01:29:46;20.30;23.60
54680;DHT22;40578;53.178;5.846;2022-08-25T01:32:13;20.20;1.90
54680;DHT22;40578;53.178;5.846;2022-08-25T01:34:41;20.20;1.00
54680;DHT22;40578;53.178;5.846;2022-08-25T01:37:13;20.20;1.00
54680;DHT22;40578;53.178;5.846;2022-08-25T01:39:41;20.20;1.00
54680;DHT22;40578;53.178;5.846;2022-08-25T01:42:27;20.10;1.00
54680;DHT22;40578;53.178;5.846;2022-08-25T01:44:53;20.20;1.00
54680;DHT22;40578;53.178;5.846;2022-08-25T01:47:22;20.10;1.00
54680;DHT22;40578;53.178;5.846;2022-08-25T01:49:48;20.20;1.00
54680;DHT22;40578;53.178;5.846;2022-08-25T01:52:31;20.10;1.00
54680;DHT22;40578;53.178;5.846;2022-08-25T01:55:00;20.10;1.00
54680;DHT22;40578;53.178;5.846;2022-08-25T01:57:29;20.10;1.00
54680;DHT22;40578;53.178;5.846;2022-08-25T01:59:56;20.00;1.00
54680;DHT22;40578;53.178;5.846;2022-08-25T02:02:22;20.00;1.00
54680;DHT22;40578;53.178;5.846;2022-08-25T02:04:47;20.00;1.00
54680;DHT22;40578;53.178;5.846;2022-08-25T02:07:14;20.00;1.00
54680;DHT22;40578;53.178;5.846;2022-08-25T02:09:40;19.90;1.00
54680;DHT22;40578;53.178;5.846;2022-08-25T02:12:06;19.90;1.00
54680;DHT22;40578;53.178;5.846;2022-08-25T02:14:40;19.90;99.90
54680;DHT22;40578;53.178;5.846;2022-08-25T02:17:05;19.90;99.90
54680;DHT22;40578;53.178;5.846;2022-08-25T02:19:31;19.90;99.90
54680;DHT22;40578;53.178;5.846;2022-08-25T02:22:00;19.90;99.90
54680;DHT22;40578;53.178;5.846;2022-08-25T02:24:26;19.80;99.90
54680;DHT22;40578;53.178;5.846;2022-08-25T02:26:52;19.80;99.90
54680;DHT22;40578;53.178;5.846;2022-08-25T02:29:18;19.80;99.90
54680;DHT22;40578;53.178;5.846;2022-08-25T02:31:43;19.70;99.90
54680;DHT22;40578;53.178;5.846;2022-08-25T02:34:10;19.70;99.90
54680;DHT22;40578;53.178;5.846;2022-08-25T02:36:37;19.60;99.90
54680;DHT22;40578;53.178;5.846;2022-08-25T02:39:05;19.60;99.90
54680;DHT22;40578;53.178;5.846;2022-08-25T02:41:31;19.60;99.90
54680;DHT22;40578;53.178;5.846;2022-08-25T02:44:00;19.60;99.90
54680;DHT22;40578;53.178;5.846;2022-08-25T02:46:26;19.60;99.90
54680;DHT22;40578;53.178;5.846;2022-08-25T02:48:52;19.50;99.90
54680;DHT22;40578;53.178;5.846;2022-08-25T02:51:20;19.50;99.90
54680;DHT22;40578;53.178;5.846;2022-08-25T02:53:46;19.40;99.90
54680;DHT22;40578;53.178;5.846;2022-08-25T02:56:13;19.40;99.90
54680;DHT22;40578;53.178;5.846;2022-08-25T02:58:42;19.30;99.90
54680;DHT22;40578;53.178;5.846;2022-08-25T03:01:15;19.30;99.90
54680;DHT22;40578;53.178;5.846;2022-08-25T03:03:42;19.10;99.90
54680;DHT22;40578;53.178;5.846;2022-08-25T03:06:16;19.10;99.90
54680;DHT22;40578;53.178;5.846;2022-08-25T03:08:43;19.00;99.90
54680;DHT22;40578;53.178;5.846;2022-08-25T03:11:15;18.90;99.90
54680;DHT22;40578;53.178;5.846;2022-08-25T03:13:42;18.90;99.90
54680;DHT22;40578;53.178;5.846;2022-08-25T03:16:08;18.90;99.90
54680;DHT22;40578;53.178;5.846;2022-08-25T03:18:35;18.90;99.90
54680;DHT22;40578;53.178;5.846;2022-08-25T03:21:01;18.80;99.90
54680;DHT22;40578;53.178;5.846;2022-08-25T03:23:28;18.80;99.90
54680;DHT22;40578;53.178;5.846;2022-08-25T03:25:54;18.90;99.90
54680;DHT22;40578;53.178;5.846;2022-08-25T03:28:41;18.90;99.90
54680;DHT22;40578;53.178;5.846;2022-08-25T03:31:09;18.80;99.90
54680;DHT22;40578;53.178;5.846;2022-08-25T03:33:47;18.90;99.90
54680;DHT22;40578;53.178;5.846;2022-08-25T03:36:13;18.90;99.90
54680;DHT22;40578;53.178;5.846;2022-08-25T03:38:40;18.90;99.90
54680;DHT22;40578;53.178;5.846;2022-08-25T03:41:24;18.90;99.90
54680;DHT22;40578;53.178;5.846;2022-08-25T03:43:51;19.00;99.90
54680;DHT22;40578;53.178;5.846;2022-08-25T03:46:20;18.90;99.90
54680;DHT22;40578;53.178;5.846;2022-08-25T03:48:47;19.00;99.90
54680;DHT22;40578;53.178;5.846;2022-08-25T03:51:18;19.00;94.30
54680;DHT22;40578;53.178;5.846;2022-08-25T03:53:43;18.80;79.60
54680;DHT22;40578;53.178;5.846;2022-08-25T03:56:09;18.90;93.20
54680;DHT22;40578;53.178;5.846;2022-08-25T03:58:35;18.90;90.10
54680;DHT22;40578;53.178;5.846;2022-08-25T04:01:01;18.80;84.60
54680;DHT22;40578;53.178;5.846;2022-08-25T04:03:27;18.80;80.90
54680;DHT22;40578;53.178;5.846;2022-08-25T04:05:52;18.80;82.40
54680;DHT22;40578;53.178;5.846;2022-08-25T04:08:18;18.80;72.80
54680;DHT22;40578;53.178;5.846;2022-08-25T04:10:44;18.80;55.30
54680;DHT22;40578;53.178;5.846;2022-08-25T04:13:09;18.80;36.30
54680;DHT22;40578;53.178;5.846;2022-08-25T04:15:42;18.90;18.10
54680;DHT22;40578;53.178;5.846;2022-08-25T04:18:09;18.80;4.50
54680;DHT22;40578;53.178;5.846;2022-08-25T04:20:36;18.80;6.20
54680;DHT22;40578;53.178;5.846;2022-08-25T04:23:02;18.70;40.30
54680;DHT22;40578;53.178;5.846;2022-08-25T04:25:29;19.00;91.10
54680;DHT22;40578;53.178;5.846;2022-08-25T04:27:54;18.50;99.90
54680;DHT22;40578;53.178;5.846;2022-08-25T04:30:20;18.40;99.90
54680;DHT22;40578;53.178;5.846;2022-08-25T04:32:46;18.30;99.90
54680;DHT22;40578;53.178;5.846;2022-08-25T04:35:15;18.30;99.90
54680;DHT22;40578;53.178;5.846;2022-08-25T04:37:44;18.20;99.90
54680;DHT22;40578;53.178;5.846;2022-08-25T04:40:12;18.30;99.90
54680;DHT22;40578;53.178;5.846;2022-08-25T04:42:38;18.30;99.90
54680;DHT22;40578;53.178;5.846;2022-08-25T04:45:09;18.30;99.90
54680;DHT22;40578;53.178;5.846;2022-08-25T04:47:39;18.30;99.90
54680;DHT22;40578;53.178;5.846;2022-08-25T04:50:06;18.40;99.90
54680;DHT22;40578;53.178;5.846;2022-08-25T04:52:32;18.50;99.90
54680;DHT22;40578;53.178;5.846;2022-08-25T04:55:00;18.50;99.90
54680;DHT22;40578;53.178;5.846;2022-08-25T04:57:26;18.50;99.90
54680;DHT22;40578;53.178;5.846;2022-08-25T04:59:52;18.40;99.90
54680;DHT22;40578;53.178;5.846;2022-08-25T05:02:19;18.40;99.90
54680;DHT22;40578;53.178;5.846;2022-08-25T05:04:44;18.40;99.90
54680;DHT22;40578;53.178;5.846;2022-08-25T05:07:10;18.40;99.90
54680;DHT22;40578;53.178;5.846;2022-08-25T05:09:36;18.40;99.90
54680;DHT22;40578;53.178;5.846;2022-08-25T05:12:03;18.50;99.90
54680;DHT22;40578;53.178;5.846;2022-08-25T05:14:29;18.50;99.90
54680;DHT22;40578;53.178;5.846;2022-08-25T05:16:54;18.50;99.90
54680;DHT22;40578;53.178;5.846;2022-08-25T05:19:27;18.50;99.90
54680;DHT22;40578;53.178;5.846;2022-08-25T05:21:53;18.40;99.90
54680;DHT22;40578;53.178;5.846;2022-08-25T05:24:19;18.50;99.90
54680;DHT22;40578;53.178;5.846;2022-08-25T05:26:44;18.40;99.90
54680;DHT22;40578;53.178;5.846;2022-08-25T05:29:12;18.60;99.90
54680;DHT22;40578;53.178;5.846;2022-08-25T05:31:44;18.60;99.90
54680;DHT22;40578;53.178;5.846;2022-08-25T05:34:09;18.60;99.60
54680;DHT22;40578;53.178;5.846;2022-08-25T05:36:36;18.70;75.60
54680;DHT22;40578;53.178;5.846;2022-08-25T05:39:03;18.80;52.90
54680;DHT22;40578;53.178;5.846;2022-08-25T05:41:29;18.80;33.80
54680;DHT22;40578;53.178;5.846;2022-08-25T05:43:55;18.80;17.40
54680;DHT22;40578;53.178;5.846;2022-08-25T05:46:22;18.90;1.00
54680;DHT22;40578;53.178;5.846;2022-08-25T05:48:49;19.00;1.00
54680;DHT22;40578;53.178;5.846;2022-08-25T05:51:15;19.00;1.00
54680;DHT22;40578;53.178;5.846;2022-08-25T05:53:43;19.10;1.00
54680;DHT22;40578;53.178;5.846;2022-08-25T05:56:10;19.10;1.00
54680;DHT22;40578;53.178;5.846;2022-08-25T05:58:36;19.10;1.00
54680;DHT22;40578;53.178;5.846;2022-08-25T06:01:03;19.20;1.00
54680;DHT22;40578;53.178;5.846;2022-08-25T06:03:50;19.20;1.00
54680;DHT22;40578;53.178;5.846;2022-08-25T06:06:20;19.20;1.00
54680;DHT22;40578;53.178;5.846;2022-08-25T06:08:45;19.30;1.00
54680;DHT22;40578;53.178;5.846;2022-08-25T06:11:13;19.40;1.00
54680;DHT22;40578;53.178;5.846;2022-08-25T06:13:40;19.50;1.00
54680;DHT22;40578;53.178;5.846;2022-08-25T06:16:06;19.60;1.00
54680;DHT22;40578;53.178;5.846;2022-08-25T06:18:31;19.70;1.00
54680;DHT22;40578;53.178;5.846;2022-08-25T06:20:57;19.80;1.00
54680;DHT22;40578;53.178;5.846;2022-08-25T06:23:23;19.80;1.00
54680;DHT22;40578;53.178;5.846;2022-08-25T06:25:49;19.90;1.00
54680;DHT22;40578;53.178;5.846;2022-08-25T06:28:15;19.90;1.00
54680;DHT22;40578;53.178;5.846;2022-08-25T06:30:43;20.00;1.00
54680;DHT22;40578;53.178;5.846;2022-08-25T06:33:09;20.10;1.00
54680;DHT22;40578;53.178;5.846;2022-08-25T06:35:36;20.20;1.00
54680;DHT22;40578;53.178;5.846;2022-08-25T06:38:02;20.20;99.90
54680;DHT22;40578;53.178;5.846;2022-08-25T06:40:28;20.20;1.00
54680;DHT22;40578;53.178;5.846;2022-08-25T06:42:53;20.30;1.00
54680;DHT22;40578;53.178;5.846;2022-08-25T06:45:19;20.30;99.90
54680;DHT22;40578;53.178;5.846;2022-08-25T06:47:47;20.40;99.90
54680;DHT22;40578;53.178;5.846;2022-08-25T06:50:12;20.50;1.00
54680;DHT22;40578;53.178;5.846;2022-08-25T06:52:38;20.50;99.90
54680;DHT22;40578;53.178;5.846;2022-08-25T06:55:06;20.50;99.90
54680;DHT22;40578;53.178;5.846;2022-08-25T06:57:32;20.60;99.90
54680;DHT22;40578;53.178;5.846;2022-08-25T07:00:01;20.70;99.90
54680;DHT22;40578;53.178;5.846;2022-08-25T07:02:27;20.70;99.90
54680;DHT22;40578;53.178;5.846;2022-08-25T07:04:52;20.80;99.90
54680;DHT22;40578;53.178;5.846;2022-08-25T07:07:18;20.90;99.90
54680;DHT22;40578;53.178;5.846;2022-08-25T07:09:44;20.90;99.90
54680;DHT22;40578;53.178;5.846;2022-08-25T07:12:10;21.00;99.90
54680;DHT22;40578;53.178;5.846;2022-08-25T07:14:36;21.10;99.90
54680;DHT22;40578;53.178;5.846;2022-08-25T07:17:02;21.10;99.90
54680;DHT22;40578;53.178;5.846;2022-08-25T07:19:28;21.20;99.90
54680;DHT22;40578;53.178;5.846;2022-08-25T07:21:54;21.20;99.90
54680;DHT22;40578;53.178;5.846;2022-08-25T07:24:21;21.40;99.90
54680;DHT22;40578;53.178;5.846;2022-08-25T07:26:47;21.40;99.90
54680;DHT22;40578;53.178;5.846;2022-08-25T07:29:18;21.50;99.90
54680;DHT22;40578;53.178;5.846;2022-08-25T07:31:45;21.50;99.90
54680;DHT22;40578;53.178;5.846;2022-08-25T07:34:13;21.70;99.90
54680;DHT22;40578;53.178;5.846;2022-08-25T07:36:58;21.70;99.90
54680;DHT22;40578;53.178;5.846;2022-08-25T07:39:24;21.70;99.90
54680;DHT22;40578;53.178;5.846;2022-08-25T07:41:51;21.70;99.90
54680;DHT22;40578;53.178;5.846;2022-08-25T07:44:17;21.90;99.90
54680;DHT22;40578;53.178;5.846;2022-08-25T07:46:43;21.90;99.90
54680;DHT22;40578;53.178;5.846;2022-08-25T07:49:09;22.00;99.90
54680;DHT22;40578;53.178;5.846;2022-08-25T07:51:35;22.00;99.90
54680;DHT22;40578;53.178;5.846;2022-08-25T07:54:00;22.00;99.90
54680;DHT22;40578;53.178;5.846;2022-08-25T07:56:29;22.20;99.90
54680;DHT22;40578;53.178;5.846;2022-08-25T07:58:54;22.20;99.90
54680;DHT22;40578;53.178;5.846;2022-08-25T08:01:22;22.20;96.30
54680;DHT22;40578;53.178;5.846;2022-08-25T08:03:49;22.20;97.70
54680;DHT22;40578;53.178;5.846;2022-08-25T08:06:18;22.30;69.20
54680;DHT22;40578;53.178;5.846;2022-08-25T08:08:45;22.40;69.80
54680;DHT22;40578;53.178;5.846;2022-08-25T08:11:26;22.50;32.40
54680;DHT22;40578;53.178;5.846;2022-08-25T08:13:54;22.70;1.00
54680;DHT22;40578;53.178;5.846;2022-08-25T08:16:23;22.70;1.00
54680;DHT22;40578;53.178;5.846;2022-08-25T08:18:50;22.80;1.00
54680;DHT22;40578;53.178;5.846;2022-08-25T08:21:22;22.90;1.00
54680;DHT22;40578;53.178;5.846;2022-08-25T08:23:49;23.00;1.00
54680;DHT22;40578;53.178;5.846;2022-08-25T08:26:16;23.10;1.00
54680;DHT22;40578;53.178;5.846;2022-08-25T08:28:43;23.20;1.00
54680;DHT22;40578;53.178;5.846;2022-08-25T08:31:09;23.10;1.00
54680;DHT22;40578;53.178;5.846;2022-08-25T08:33:35;23.20;1.00
54680;DHT22;40578;53.178;5.846;2022-08-25T08:36:05;23.30;1.00
54680;DHT22;40578;53.178;5.846;2022-08-25T08:38:32;23.30;1.00
54680;DHT22;40578;53.178;5.846;2022-08-25T08:55:03;23.80;99.90
54680;DHT22;40578;53.178;5.846;2022-08-25T08:57:33;24.00;99.90
54680;DHT22;40578;53.178;5.846;2022-08-25T09:00:04;24.00;99.90
54680;DHT22;40578;53.178;5.846;2022-08-25T09:02:33;24.00;1.00
54680;DHT22;40578;53.178;5.846;2022-08-25T09:05:13;24.10;1.00
54680;DHT22;40578;53.178;5.846;2022-08-25T09:07:49;24.20;1.00
54680;DHT22;40578;53.178;5.846;2022-08-25T09:10:18;24.30;99.90
54680;DHT22;40578;53.178;5.846;2022-08-25T09:13:18;24.50;99.90
54680;DHT22;40578;53.178;5.846;2022-08-25T09:28:01;25.10;99.90
54680;DHT22;40578;53.178;5.846;2022-08-25T09:33:22;25.30;99.90
54680;DHT22;40578;53.178;5.846;2022-08-25T09:35:50;25.40;99.90
54680;DHT22;40578;53.178;5.846;2022-08-25T09:38:16;25.50;99.90
54680;DHT22;40578;53.178;5.846;2022-08-25T09:40:47;25.50;62.40
54680;DHT22;40578;53.178;5.846;2022-08-25T09:43:21;25.60;28.60
54680;DHT22;40578;53.178;5.846;2022-08-25T09:45:54;25.60;50.90
54680;DHT22;40578;53.178;5.846;2022-08-25T09:48:31;25.70;70.70
54680;DHT22;40578;53.178;5.846;2022-08-25T09:54:19;25.80;32.50
54680;DHT22;40578;53.178;5.846;2022-08-25T09:56:55;25.90;1.00
54680;DHT22;40578;53.178;5.846;2022-08-25T09:59:28;25.90;1.00
54680;DHT22;40578;53.178;5.846;2022-08-25T10:04:32;26.10;1.00
54680;DHT22;40578;53.178;5.846;2022-08-25T10:06:59;26.10;1.00
54680;DHT22;40578;53.178;5.846;2022-08-25T10:09:33;26.20;1.00
54680;DHT22;40578;53.178;5.846;2022-08-25T10:12:00;26.20;1.00
54680;DHT22;40578;53.178;5.846;2022-08-25T10:14:34;26.20;1.00
54680;DHT22;40578;53.178;5.846;2022-08-25T10:17:24;26.20;1.00
54680;DHT22;40578;53.178;5.846;2022-08-25T10:22:36;26.30;1.00
54680;DHT22;40578;53.178;5.846;2022-08-25T10:25:03;26.40;99.90
54680;DHT22;40578;53.178;5.846;2022-08-25T10:30:16;26.50;99.90
54680;DHT22;40578;53.178;5.846;2022-08-25T10:38:09;26.60;99.90
54680;DHT22;40578;53.178;5.846;2022-08-25T10:40:53;26.70;99.90
54680;DHT22;40578;53.178;5.846;2022-08-25T10:43:32;26.70;99.90
54680;DHT22;40578;53.178;5.846;2022-08-25T10:46:23;26.70;99.90
54680;DHT22;40578;53.178;5.846;2022-08-25T10:49:06;26.80;99.90
54680;DHT22;40578;53.178;5.846;2022-08-25T10:51:53;26.90;99.90
54680;DHT22;40578;53.178;5.846;2022-08-25T10:54:30;27.00;99.90
54680;DHT22;40578;53.178;5.846;2022-08-25T10:57:22;27.10;99.90
54680;DHT22;40578;53.178;5.846;2022-08-25T11:06:10;27.20;99.90
54680;DHT22;40578;53.178;5.846;2022-08-25T11:08:50;27.40;99.90
54680;DHT22;40578;53.178;5.846;2022-08-25T11:14:28;27.50;99.90
54680;DHT22;40578;53.178;5.846;2022-08-25T11:19:36;27.60;99.90
54680;DHT22;40578;53.178;5.846;2022-08-25T11:22:32;27.70;99.90
54680;DHT22;40578;53.178;5.846;2022-08-25T11:28:15;27.90;99.90
54680;DHT22;40578;53.178;5.846;2022-08-25T11:30:43;28.00;99.90
54680;DHT22;40578;53.178;5.846;2022-08-25T11:33:13;28.10;99.90
54680;DHT22;40578;53.178;5.846;2022-08-25T11:35:54;28.10;99.90
54680;DHT22;40578;53.178;5.846;2022-08-25T11:38:42;28.20;99.90
54680;DHT22;40578;53.178;5.846;2022-08-25T11:49:31;28.50;99.90
54680;DHT22;40578;53.178;5.846;2022-08-25T11:57:45;28.80;99.90
54680;DHT22;40578;53.178;5.846;2022-08-25T12:02:45;29.20;99.90
54680;DHT22;40578;53.178;5.846;2022-08-25T12:10:23;29.40;99.90
54680;DHT22;40578;53.178;5.846;2022-08-25T12:13:01;29.30;99.90
54680;DHT22;40578;53.178;5.846;2022-08-25T12:18:15;29.50;99.90
54680;DHT22;40578;53.178;5.846;2022-08-25T12:23:41;29.60;99.90
54680;DHT22;40578;53.178;5.846;2022-08-25T12:26:37;29.50;96.50
54680;DHT22;40578;53.178;5.846;2022-08-25T12:32:05;29.50;96.60
54680;DHT22;40578;53.178;5.846;2022-08-25T12:37:28;29.50;99.90
54680;DHT22;40578;53.178;5.846;2022-08-25T12:40:03;29.60;99.90
54680;DHT22;40578;53.178;5.846;2022-08-25T12:42:38;29.60;99.90
54680;DHT22;40578;53.178;5.846;2022-08-25T12:47:47;29.70;99.90
54680;DHT22;40578;53.178;5.846;2022-08-25T12:50:36;29.80;99.90
54680;DHT22;40578;53.178;5.846;2022-08-25T12:55:58;29.80;99.90
54680;DHT22;40578;53.178;5.846;2022-08-25T12:58:32;29.80;99.90
54680;DHT22;40578;53.178;5.846;2022-08-25T13:01:26;29.80;99.90
54680;DHT22;40578;53.178;5.846;2022-08-25T13:04:03;29.90;99.90
54680;DHT22;40578;53.178;5.846;2022-08-25T13:06:44;30.00;99.90
54680;DHT22;40578;53.178;5.846;2022-08-25T13:14:57;30.10;99.90
54680;DHT22;40578;53.178;5.846;2022-08-25T13:17:34;30.20;99.90
54680;DHT22;40578;53.178;5.846;2022-08-25T13:22:36;30.30;99.90
54680;DHT22;40578;53.178;5.846;2022-08-25T13:25:02;30.40;99.90
54680;DHT22;40578;53.178;5.846;2022-08-25T13:27:29;30.40;94.60
54680;DHT22;40578;53.178;5.846;2022-08-25T13:29:57;30.30;97.90
54680;DHT22;40578;53.178;5.846;2022-08-25T13:32:34;30.40;99.90
54680;DHT22;40578;53.178;5.846;2022-08-25T13:35:27;30.50;97.50
54680;DHT22;40578;53.178;5.846;2022-08-25T13:38:14;30.50;99.90
54680;DHT22;40578;53.178;5.846;2022-08-25T13:40:40;30.60;97.40
54680;DHT22;40578;53.178;5.846;2022-08-25T13:43:10;30.50;98.30
54680;DHT22;40578;53.178;5.846;2022-08-25T13:45:42;30.50;82.30
54680;DHT22;40578;53.178;5.846;2022-08-25T13:48:10;30.50;89.90
54680;DHT22;40578;53.178;5.846;2022-08-25T13:50:38;30.50;88.70
54680;DHT22;40578;53.178;5.846;2022-08-25T13:53:25;30.50;99.90
54680;DHT22;40578;53.178;5.846;2022-08-25T13:55:53;30.60;63.20
54680;DHT22;40578;53.178;5.846;2022-08-25T13:58:31;30.60;77.70
54680;DHT22;40578;53.178;5.846;2022-08-25T14:01:11;30.60;95.50
54680;DHT22;40578;53.178;5.846;2022-08-25T14:03:43;30.70;79.20
54680;DHT22;40578;53.178;5.846;2022-08-25T14:08:43;30.70;88.30
54680;DHT22;40578;53.178;5.846;2022-08-25T14:11:59;30.90;98.90
54680;DHT22;40578;53.178;5.846;2022-08-25T14:14:06;30.90;99.90
54680;DHT22;40578;53.178;5.846;2022-08-25T14:16:38;30.90;78.50
54680;DHT22;40578;53.178;5.846;2022-08-25T14:19:08;30.80;78.90
54680;DHT22;40578;53.178;5.846;2022-08-25T14:21:37;30.80;99.90
54680;DHT22;40578;53.178;5.846;2022-08-25T14:24:05;30.90;85.90
54680;DHT22;40578;53.178;5.846;2022-08-25T14:26:31;30.90;96.40
54680;DHT22;40578;53.178;5.846;2022-08-25T14:28:56;31.10;99.90
54680;DHT22;40578;53.178;5.846;2022-08-25T14:31:28;31.20;40.90
54680;DHT22;40578;53.178;5.846;2022-08-25T14:33:57;31.20;83.70
54680;DHT22;40578;53.178;5.846;2022-08-25T14:36:23;31.30;81.20
54680;DHT22;40578;53.178;5.846;2022-08-25T14:38:49;31.20;97.40
54680;DHT22;40578;53.178;5.846;2022-08-25T14:41:15;31.10;95.00
54680;DHT22;40578;53.178;5.846;2022-08-25T14:43:41;31.10;73.80
54680;DHT22;40578;53.178;5.846;2022-08-25T14:46:19;31.10;92.00
54680;DHT22;40578;53.178;5.846;2022-08-25T14:48:48;31.10;98.00
54680;DHT22;40578;53.178;5.846;2022-08-25T14:51:16;31.10;76.80
54680;DHT22;40578;53.178;5.846;2022-08-25T14:53:42;31.10;79.10
54680;DHT22;40578;53.178;5.846;2022-08-25T14:56:09;31.20;99.90
54680;DHT22;40578;53.178;5.846;2022-08-25T14:58:35;31.20;99.90
54680;DHT22;40578;53.178;5.846;2022-08-25T15:01:02;31.30;29.10
54680;DHT22;40578;53.178;5.846;2022-08-25T15:03:35;31.20;1.00
54680;DHT22;40578;53.178;5.846;2022-08-25T15:06:02;31.20;99.90
54680;DHT22;40578;53.178;5.846;2022-08-25T15:08:28;31.20;99.90
54680;DHT22;40578;53.178;5.846;2022-08-25T15:11:12;31.20;99.90
54680;DHT22;40578;53.178;5.846;2022-08-25T15:13:39;31.30;99.90
54680;DHT22;40578;53.178;5.846;2022-08-25T15:16:06;31.20;1.70
54680;DHT22;40578;53.178;5.846;2022-08-25T15:18:33;31.30;81.70
54680;DHT22;40578;53.178;5.846;2022-08-25T15:20:59;31.30;1.00
54680;DHT22;40578;53.178;5.846;2022-08-25T15:23:25;31.30;1.00
54680;DHT22;40578;53.178;5.846;2022-08-25T15:25:53;31.30;99.90
54680;DHT22;40578;53.178;5.846;2022-08-25T15:28:20;31.20;17.80
54680;DHT22;40578;53.178;5.846;2022-08-25T15:30:46;31.20;1.00
54680;DHT22;40578;53.178;5.846;2022-08-25T15:33:12;31.10;1.00
54680;DHT22;40578;53.178;5.846;2022-08-25T15:35:38;31.10;99.90
54680;DHT22;40578;53.178;5.846;2022-08-25T15:38:04;31.10;99.90
54680;DHT22;40578;53.178;5.846;2022-08-25T15:40:29;31.10;99.90
54680;DHT22;40578;53.178;5.846;2022-08-25T15:42:55;31.10;99.90
54680;DHT22;40578;53.178;5.846;2022-08-25T15:45:21;31.10;1.00
54680;DHT22;40578;53.178;5.846;2022-08-25T15:47:47;31.10;1.00
54680;DHT22;40578;53.178;5.846;2022-08-25T15:50:16;31.10;99.90
54680;DHT22;40578;53.178;5.846;2022-08-25T15:52:43;31.20;99.90
54680;DHT22;40578;53.178;5.846;2022-08-25T15:55:10;31.10;4.10
54680;DHT22;40578;53.178;5.846;2022-08-25T15:57:36;31.10;95.60
54680;DHT22;40578;53.178;5.846;2022-08-25T16:00:06;31.10;99.90
54680;DHT22;40578;53.178;5.846;2022-08-25T16:02:32;31.10;1.00
54680;DHT22;40578;53.178;5.846;2022-08-25T16:04:59;31.10;1.00
54680;DHT22;40578;53.178;5.846;2022-08-25T16:07:26;31.00;1.00
54680;DHT22;40578;53.178;5.846;2022-08-25T16:09:54;31.00;73.20
54680;DHT22;40578;53.178;5.846;2022-08-25T16:12:21;31.00;46.20
54680;DHT22;40578;53.178;5.846;2022-08-25T16:14:48;31.00;13.60
54680;DHT22;40578;53.178;5.846;2022-08-25T16:17:14;31.00;1.90
54680;DHT22;40578;53.178;5.846;2022-08-25T16:19:40;30.90;1.00
54680;DHT22;40578;53.178;5.846;2022-08-25T16:22:05;30.90;99.90
54680;DHT22;40578;53.178;5.846;2022-08-25T16:24:32;30.90;99.90
54680;DHT22;40578;53.178;5.846;2022-08-25T16:26:59;30.90;1.00
54680;DHT22;40578;53.178;5.846;2022-08-25T16:29:33;30.90;1.00
54680;DHT22;40578;53.178;5.846;2022-08-25T16:31:59;31.00;1.00
54680;DHT22;40578;53.178;5.846;2022-08-25T16:34:25;31.10;49.40
54680;DHT22;40578;53.178;5.846;2022-08-25T16:36:52;31.30;60.70
54680;DHT22;40578;53.178;5.846;2022-08-25T16:39:24;31.50;49.40
54680;DHT22;40578;53.178;5.846;2022-08-25T16:41:51;31.50;99.90
54680;DHT22;40578;53.178;5.846;2022-08-25T16:44:19;31.50;79.40
54680;DHT22;40578;53.178;5.846;2022-08-25T16:46:45;31.30;99.90
54680;DHT22;40578;53.178;5.846;2022-08-25T16:49:12;31.30;57.20
54680;DHT22;40578;53.178;5.846;2022-08-25T16:51:38;31.40;60.50
54680;DHT22;40578;53.178;5.846;2022-08-25T16:54:06;31.60;66.00
54680;DHT22;40578;53.178;5.846;2022-08-25T16:56:50;31.80;99.90
54680;DHT22;40578;53.178;5.846;2022-08-25T16:59:16;31.90;99.90
54680;DHT22;40578;53.178;5.846;2022-08-25T17:01:42;32.00;99.90
54680;DHT22;40578;53.178;5.846;2022-08-25T17:04:08;32.00;99.90
54680;DHT22;40578;53.178;5.846;2022-08-25T17:06:37;32.00;76.50
54680;DHT22;40578;53.178;5.846;2022-08-25T17:09:03;31.90;66.20
54680;DHT22;40578;53.178;5.846;2022-08-25T17:11:32;31.90;74.20
54680;DHT22;40578;53.178;5.846;2022-08-25T17:14:01;31.90;85.00
54680;DHT22;40578;53.178;5.846;2022-08-25T17:16:30;31.90;97.70
54680;DHT22;40578;53.178;5.846;2022-08-25T17:18:58;31.90;99.90
54680;DHT22;40578;53.178;5.846;2022-08-25T17:21:26;31.80;99.90
54680;DHT22;40578;53.178;5.846;2022-08-25T17:23:54;31.60;99.90
54680;DHT22;40578;53.178;5.846;2022-08-25T17:26:21;31.20;99.90
54680;DHT22;40578;53.178;5.846;2022-08-25T17:28:47;30.80;99.90
54680;DHT22;40578;53.178;5.846;2022-08-25T17:31:13;30.40;99.90
54680;DHT22;40578;53.178;5.846;2022-08-25T17:33:39;30.00;99.90
54680;DHT22;40578;53.178;5.846;2022-08-25T17:36:05;29.70;99.90
54680;DHT22;40578;53.178;5.846;2022-08-25T17:38:32;29.50;1.00